Central City, Kentucky
Current Conditions -  °F | °C
As of 10:15 PM on Tuesday 21 Oct 2014 (Local Time) from K2I0 Reporting Station
Clear Clear  
Wind Chill: 48°   Ceiling: Unl
Heat Index: 48°   Visibility: 10mi
Dew Point: 43°   Wind: 0mph
Humidity: 82%   Direction: NA
Pressure: 30.17"   Gusts: NA
Location:  37.29°N, 87.12°W
Report Text: K2I0 220315Z AUTO 00000KT 10SM CLR 09/06 A3017 RMK AO2 T00890060
Loading
Personal Weather Stations






























Interactive Weather Map New forecast layout! Learn more

10-Day Weather Forecast

Advertisements
Track Severe Weather on mobile